Time;durP1;ratioP1;P1;durP2;ratioP2;P2;SDS_P1;SDS_P2;PMS_P1;PMS_P2;Temp;Humidity;BMP_temperature;BMP_pressure;BME280_temperature;BME280_humidity;BME280_pressure;Samples;Min_cycle;Max_cycle;Signal;HPM_P1;HPM_P2
2022/10/29 00:00:02;;;;;;;24.03;12.93;;;15.30;99.90;;;;;;5126501;28;20460;-88
2022/10/29 00:02:28;;;;;;;13.70;11.33;;;15.20;99.90;;;;;;5123847;28;20441;-88
2022/10/29 00:04:56;;;;;;;19.57;12.83;;;15.20;99.90;;;;;;5118462;28;20465;-88
2022/10/29 00:07:23;;;;;;;28.50;11.50;;;15.20;99.90;;;;;;5117449;28;20452;-88
2022/10/29 00:09:50;;;;;;;15.30;11.30;;;15.20;99.90;;;;;;5118398;28;20833;-88
2022/10/29 00:12:17;;;;;;;17.23;11.10;;;15.30;99.90;;;;;;5132175;27;20823;-87
2022/10/29 00:14:43;;;;;;;15.47;11.83;;;15.20;99.90;;;;;;5118189;28;20470;-87
2022/10/29 00:17:10;;;;;;;18.00;11.00;;;15.20;99.90;;;;;;5119118;28;20446;-87
2022/10/29 00:19:37;;;;;;;19.90;10.00;;;15.10;99.90;;;;;;5120219;28;20517;-87
2022/10/29 00:22:05;;;;;;;17.73;10.73;;;15.10;99.90;;;;;;5141948;27;20465;-87
2022/10/29 00:24:32;;;;;;;14.80;10.50;;;15.00;99.90;;;;;;5141263;27;20451;-86
2022/10/29 00:26:58;;;;;;;26.83;12.10;;;15.00;99.90;;;;;;5124703;28;20458;-87
2022/10/29 00:29:26;;;;;;;19.20;9.97;;;15.00;99.90;;;;;;5117705;28;20443;-87
2022/10/29 00:31:52;;;;;;;15.53;10.40;;;14.90;99.90;;;;;;5118264;28;20494;-88
2022/10/29 00:34:19;;;;;;;17.80;10.73;;;14.90;99.90;;;;;;5119134;28;20438;-88
2022/10/29 00:36:46;;;;;;;15.43;9.13;;;14.80;99.90;;;;;;5122462;28;20431;-87
2022/10/29 00:39:15;;;;;;;13.57;10.30;;;14.80;99.90;;;;;;5118002;28;20445;-87
2022/10/29 00:41:43;;;;;;;12.40;10.30;;;14.80;99.90;;;;;;5135975;28;20431;-87
2022/10/29 00:44:27;;;;;;;11.43;9.80;;;14.80;99.90;;;;;;5137540;27;20771;-87
2022/10/29 00:46:59;;;;;;;15.47;10.00;;;14.90;99.90;;;;;;5138301;28;20437;-87
2022/10/29 00:49:27;;;;;;;17.50;9.87;;;14.90;99.90;;;;;;5138169;28;20426;-87
2022/10/29 00:51:54;;;;;;;18.60;11.70;;;15.00;99.90;;;;;;5122441;28;20445;-88
2022/10/29 00:54:23;;;;;;;13.37;9.13;;;15.00;99.90;;;;;;5116447;28;20462;-88
2022/10/29 00:56:56;;;;;;;17.20;9.40;;;14.90;99.90;;;;;;5118920;28;20455;-87
2022/10/29 00:59:23;;;;;;;16.47;10.43;;;14.90;99.90;;;;;;5135252;28;20459;-87
2022/10/29 01:01:50;;;;;;;15.63;9.37;;;14.80;99.90;;;;;;5135502;28;20422;-87
2022/10/29 01:04:18;;;;;;;16.70;11.00;;;14.90;99.90;;;;;;5118272;28;20947;-87
2022/10/29 01:06:45;;;;;;;12.13;9.83;;;14.80;99.90;;;;;;5116598;28;20542;-87
2022/10/29 01:09:12;;;;;;;15.60;9.53;;;14.90;99.90;;;;;;5137264;27;20439;-87
2022/10/29 01:11:51;;;;;;;14.40;9.40;;;14.90;99.90;;;;;;5139694;27;20431;-87
2022/10/29 01:14:28;;;;;;;14.33;8.80;;;14.90;99.90;;;;;;5117562;27;20434;-88
2022/10/29 01:17:03;;;;;;;16.80;9.70;;;14.80;99.90;;;;;;5115298;28;20442;-88
2022/10/29 01:19:52;;;;;;;12.60;10.60;;;14.80;99.90;;;;;;5117405;28;20437;-88
2022/10/29 01:22:29;;;;;;;16.90;11.27;;;14.80;99.90;;;;;;5119423;28;20442;-88
2022/10/29 01:25:20;;;;;;;16.03;8.90;;;14.80;99.90;;;;;;5116793;28;20466;-87
2022/10/29 01:28:03;;;;;;;14.93;11.20;;;14.80;99.90;;;;;;5124710;28;20461;-88
2022/10/29 01:30:59;;;;;;;12.90;9.03;;;14.90;99.90;;;;;;5139754;28;20485;-87
2022/10/29 01:33:36;;;;;;;19.20;10.63;;;15.00;99.90;;;;;;5123038;28;20470;-87
2022/10/29 01:36:13;;;;;;;22.73;10.10;;;15.00;99.90;;;;;;5117540;28;20460;-87
2022/10/29 01:38:49;;;;;;;14.17;9.10;;;15.00;99.90;;;;;;5131919;28;20817;-87
2022/10/29 01:41:23;;;;;;;15.40;9.03;;;15.00;99.90;;;;;;5137175;28;20448;-87
2022/10/29 01:43:55;;;;;;;15.93;10.30;;;15.00;99.90;;;;;;5136469;28;20445;-87
2022/10/29 01:46:27;;;;;;;14.27;10.47;;;15.00;99.90;;;;;;5135911;28;20473;-88
2022/10/29 01:49:02;;;;;;;14.73;9.33;;;15.00;99.90;;;;;;5136330;28;20434;-87
2022/10/29 01:51:32;;;;;;;13.93;10.60;;;15.00;99.90;;;;;;5133740;28;20439;-87
2022/10/29 01:54:01;;;;;;;15.63;9.73;;;15.00;99.90;;;;;;5115861;28;20481;-87
2022/10/29 01:56:27;;;;;;;12.17;9.03;;;15.00;99.90;;;;;;5116375;28;20450;-87
2022/10/29 01:58:57;;;;;;;13.70;9.77;;;15.00;99.90;;;;;;5115636;28;20442;-88
2022/10/29 02:01:39;;;;;;;16.83;10.17;;;15.00;99.90;;;;;;5116057;28;20529;-88
2022/10/29 02:04:23;;;;;;;17.33;10.80;;;15.00;99.90;;;;;;5115757;28;20442;-89
2022/10/29 02:06:59;;;;;;;14.13;10.00;;;14.90;99.90;;;;;;5116937;28;20800;-87
2022/10/29 02:09:33;;;;;;;18.33;9.40;;;15.00;99.90;;;;;;5117473;28;20418;-88
2022/10/29 02:12:06;;;;;;;15.83;10.77;;;14.80;99.90;;;;;;5116898;28;20446;-87
2022/10/29 02:14:38;;;;;;;14.03;10.10;;;14.80;99.90;;;;;;5115364;28;20462;-87
2022/10/29 02:17:06;;;;;;;13.60;9.87;;;14.70;99.90;;;;;;5114674;28;20821;-88
2022/10/29 02:19:36;;;;;;;18.47;10.30;;;14.70;99.90;;;;;;5114810;28;20977;-88
2022/10/29 02:22:03;;;;;;;13.03;9.40;;;14.70;99.90;;;;;;5113642;28;20950;-88
2022/10/29 02:24:29;;;;;;;11.80;9.47;;;14.70;99.90;;;;;;5117442;28;20450;-87
2022/10/29 02:26:56;;;;;;;18.00;9.57;;;14.70;99.90;;;;;;5115351;28;20453;-88
2022/10/29 02:29:24;;;;;;;15.40;9.37;;;14.80;99.90;;;;;;5114484;28;20438;-88
2022/10/29 02:31:50;;;;;;;15.57;9.27;;;14.80;99.90;;;;;;5114090;28;20453;-88
2022/10/29 02:34:17;;;;;;;19.33;11.90;;;14.80;99.90;;;;;;5114869;28;20473;-88
2022/10/29 02:36:45;;;;;;;13.20;10.43;;;14.90;99.90;;;;;;5114863;28;20958;-87
2022/10/29 02:39:18;;;;;;;13.63;9.17;;;15.00;99.90;;;;;;5122916;27;20438;-87
2022/10/29 02:41:45;;;;;;;12.93;8.10;;;14.90;99.90;;;;;;5137935;27;20482;-87
2022/10/29 02:44:11;;;;;;;13.60;8.73;;;15.00;99.90;;;;;;5122442;27;20533;-87
2022/10/29 02:46:39;;;;;;;15.43;7.57;;;15.00;99.90;;;;;;5115024;28;20450;-87
2022/10/29 02:49:06;;;;;;;11.37;7.97;;;15.00;99.90;;;;;;5131263;28;20495;-87
2022/10/29 02:51:33;;;;;;;13.67;8.17;;;15.00;99.90;;;;;;5123189;28;20442;-87
2022/10/29 02:54:01;;;;;;;15.07;7.80;;;15.00;99.90;;;;;;5114050;28;20859;-88
2022/10/29 02:56:28;;;;;;;11.67;9.17;;;15.00;99.90;;;;;;5113532;28;20449;-87
2022/10/29 02:58:54;;;;;;;16.87;7.93;;;15.00;99.90;;;;;;5111772;28;20450;-87
2022/10/29 03:01:21;;;;;;;10.43;8.33;;;15.00;99.90;;;;;;5114614;28;20816;-87
2022/10/29 03:03:48;;;;;;;16.13;8.17;;;15.00;99.90;;;;;;5114375;28;20552;-88
2022/10/29 03:06:15;;;;;;;11.80;7.60;;;15.10;99.90;;;;;;5114110;28;20469;-87
2022/10/29 03:08:42;;;;;;;10.67;8.63;;;15.00;99.90;;;;;;5114863;28;20431;-87
2022/10/29 03:11:10;;;;;;;10.43;7.40;;;15.00;99.90;;;;;;5134519;28;20505;-87
2022/10/29 03:13:38;;;;;;;14.27;8.40;;;15.00;99.90;;;;;;5117101;28;20873;-87
2022/10/29 03:16:06;;;;;;;15.40;8.20;;;15.00;99.90;;;;;;5113635;28;20456;-88
2022/10/29 03:18:32;;;;;;;11.33;7.53;;;15.00;99.90;;;;;;5122976;28;20494;-87
2022/10/29 03:20:59;;;;;;;10.47;8.20;;;15.00;99.90;;;;;;5128823;28;20503;-86
2022/10/29 03:23:26;;;;;;;16.80;9.27;;;15.00;99.90;;;;;;5135625;28;20422;-87
2022/10/29 03:25:54;;;;;;;11.07;8.97;;;15.10;99.90;;;;;;5116921;22;20505;-88
2022/10/29 03:28:23;;;;;;;17.90;9.00;;;15.10;99.90;;;;;;5071142;28;20448;-88
2022/10/29 03:30:50;;;;;;;10.87;8.30;;;15.10;99.90;;;;;;5072761;28;20444;-89
2022/10/29 03:33:16;;;;;;;12.33;8.17;;;15.10;99.90;;;;;;5074008;28;20483;-89
2022/10/29 03:35:43;;;;;;;12.47;8.57;;;15.10;99.90;;;;;;5076700;28;20467;-88
2022/10/29 03:38:12;;;;;;;13.97;9.03;;;15.00;99.90;;;;;;5091234;28;20441;-88
2022/10/29 03:40:39;;;;;;;10.57;8.30;;;15.00;99.90;;;;;;5099649;28;20420;-89
2022/10/29 03:43:05;;;;;;;12.03;8.30;;;15.00;99.90;;;;;;5080425;28;20443;-89
2022/10/29 03:45:33;;;;;;;12.50;8.27;;;14.90;99.90;;;;;;5077525;28;20472;-88
2022/10/29 03:48:03;;;;;;;13.87;8.53;;;14.90;99.90;;;;;;5078878;28;20458;-88
2022/10/29 03:50:30;;;;;;;15.37;9.27;;;14.80;99.90;;;;;;5079979;28;20820;-89
2022/10/29 03:52:56;;;;;;;14.00;8.50;;;14.80;99.90;;;;;;5079295;28;20471;-88
2022/10/29 03:55:23;;;;;;;12.93;8.50;;;14.80;99.90;;;;;;5078477;28;20818;-89
2022/10/29 03:57:50;;;;;;;11.67;8.00;;;14.80;99.90;;;;;;5076275;28;20447;-89
2022/10/29 04:00:17;;;;;;;13.10;10.20;;;14.80;99.90;;;;;;5076878;28;20451;-88
2022/10/29 04:02:45;;;;;;;11.83;7.80;;;14.80;99.90;;;;;;5079823;28;20803;-88
2022/10/29 04:05:12;;;;;;;12.33;7.73;;;14.80;99.90;;;;;;5100223;28;20479;-88
2022/10/29 04:07:38;;;;;;;8.43;7.07;;;14.80;99.90;;;;;;5100268;28;20428;-88
2022/10/29 04:10:06;;;;;;;16.63;8.50;;;14.80;99.90;;;;;;5084191;28;20447;-88
2022/10/29 04:12:34;;;;;;;11.70;8.77;;;14.80;99.90;;;;;;5079104;28;20937;-88
2022/10/29 04:15:00;;;;;;;13.27;8.20;;;14.90;99.90;;;;;;5076434;28;20497;-89
2022/10/29 04:17:27;;;;;;;14.10;9.60;;;14.90;99.90;;;;;;5083767;28;20450;-88
2022/10/29 04:19:55;;;;;;;11.70;7.97;;;14.90;99.90;;;;;;5087020;28;20466;-88
2022/10/29 04:22:22;;;;;;;21.50;8.77;;;14.90;99.90;;;;;;5093126;28;20444;-89
2022/10/29 04:24:49;;;;;;;15.50;8.20;;;14.80;99.90;;;;;;5080338;28;20436;-87
2022/10/29 04:27:15;;;;;;;11.70;7.50;;;14.80;99.90;;;;;;5079172;28;20443;-89
2022/10/29 04:29:42;;;;;;;11.53;7.97;;;14.80;99.90;;;;;;5091878;28;20439;-89
2022/10/29 04:32:09;;;;;;;17.17;8.77;;;14.80;99.90;;;;;;5078181;28;20444;-89
2022/10/29 04:34:35;;;;;;;15.30;8.90;;;14.70;99.90;;;;;;5080339;28;20479;-88
2022/10/29 04:37:03;;;;;;;15.23;9.97;;;14.70;99.90;;;;;;5085049;28;20438;-89
2022/10/29 04:39:30;;;;;;;14.10;8.40;;;14.70;99.90;;;;;;5080225;28;20455;-88
2022/10/29 04:41:57;;;;;;;12.40;7.83;;;14.70;99.90;;;;;;5078370;28;20448;-88
2022/10/29 04:44:24;;;;;;;14.10;9.13;;;14.70;99.90;;;;;;5079301;28;20437;-89
2022/10/29 04:46:50;;;;;;;13.90;8.83;;;14.70;99.90;;;;;;5079072;28;20466;-88
2022/10/29 04:49:17;;;;;;;10.33;8.30;;;14.70;99.90;;;;;;5079048;28;21098;-89
2022/10/29 04:51:44;;;;;;;10.53;8.30;;;14.70;99.90;;;;;;5099628;28;20467;-89
2022/10/29 04:54:12;;;;;;;15.53;9.53;;;14.60;99.90;;;;;;5099615;28;20468;-88
2022/10/29 04:56:39;;;;;;;16.90;8.20;;;14.50;99.90;;;;;;5089953;28;20460;-89
2022/10/29 04:59:05;;;;;;;10.80;8.60;;;14.40;99.90;;;;;;5076723;28;20515;-89
2022/10/29 05:01:32;;;;;;;13.27;9.30;;;14.30;99.90;;;;;;5076231;28;20448;-87
2022/10/29 05:03:59;;;;;;;15.03;8.17;;;14.30;99.90;;;;;;5075661;28;20467;-88
2022/10/29 05:06:25;;;;;;;16.37;9.10;;;14.40;99.90;;;;;;5077809;28;20471;-88
2022/10/29 05:08:52;;;;;;;18.37;8.90;;;14.30;99.90;;;;;;5080205;28;20444;-89
2022/10/29 05:11:20;;;;;;;15.83;8.37;;;14.20;99.90;;;;;;5082278;28;20440;-88
2022/10/29 05:13:47;;;;;;;14.07;7.63;;;14.20;99.90;;;;;;5087062;28;20926;-88
2022/10/29 05:16:14;;;;;;;12.23;8.77;;;14.20;99.90;;;;;;5090013;28;20780;-87
2022/10/29 05:18:41;;;;;;;13.30;9.17;;;14.20;99.90;;;;;;5093275;28;20792;-87
2022/10/29 05:21:07;;;;;;;14.10;9.13;;;14.20;99.90;;;;;;5085990;28;20448;-87
2022/10/29 05:23:34;;;;;;;13.07;8.87;;;14.10;99.90;;;;;;5091609;28;20432;-87
2022/10/29 05:26:01;;;;;;;19.73;9.57;;;14.00;99.90;;;;;;5093298;28;20470;-88
2022/10/29 05:28:29;;;;;;;14.27;7.80;;;14.00;99.90;;;;;;5088327;28;20467;-88
2022/10/29 05:30:56;;;;;;;10.47;8.53;;;14.00;99.90;;;;;;5095922;28;20440;-88
2022/10/29 05:33:24;;;;;;;17.17;8.80;;;14.00;99.90;;;;;;5087051;28;20870;-88
2022/10/29 05:35:51;;;;;;;11.23;10.03;;;13.90;99.90;;;;;;5079859;28;20474;-88
2022/10/29 05:38:19;;;;;;;12.93;8.47;;;13.90;99.90;;;;;;5080943;28;20459;-88
2022/10/29 05:40:45;;;;;;;12.60;7.67;;;13.80;99.90;;;;;;5096022;28;20424;-88
2022/10/29 05:43:13;;;;;;;15.30;9.20;;;13.80;99.90;;;;;;5087134;28;20446;-88
2022/10/29 05:45:42;;;;;;;14.00;8.30;;;13.70;99.90;;;;;;5082211;28;20460;-88
2022/10/29 05:48:10;;;;;;;17.27;8.90;;;13.80;99.90;;;;;;5079550;28;20444;-88
2022/10/29 05:50:37;;;;;;;16.40;7.77;;;13.70;99.90;;;;;;5075596;28;20921;-88
2022/10/29 05:53:06;;;;;;;13.77;8.70;;;13.70;99.90;;;;;;5074797;28;20451;-88
2022/10/29 05:55:34;;;;;;;13.80;10.00;;;13.70;99.90;;;;;;5075096;28;20492;-89
2022/10/29 05:58:02;;;;;;;14.90;8.13;;;13.60;99.90;;;;;;5073308;28;20533;-88
2022/10/29 06:00:32;;;;;;;12.00;7.97;;;13.60;99.90;;;;;;5074384;28;20812;-89
2022/10/29 06:03:00;;;;;;;17.07;9.37;;;13.70;99.90;;;;;;5074270;28;20932;-89
2022/10/29 06:05:27;;;;;;;12.37;8.77;;;13.60;99.90;;;;;;5074533;28;20841;-89
2022/10/29 06:07:55;;;;;;;13.93;8.50;;;13.60;99.90;;;;;;5073788;28;20456;-89
2022/10/29 06:10:22;;;;;;;14.23;8.53;;;13.60;99.90;;;;;;5076333;28;20517;-89
2022/10/29 06:12:49;;;;;;;13.57;8.77;;;13.60;99.90;;;;;;5079177;28;20448;-88
2022/10/29 06:15:16;;;;;;;14.10;8.90;;;13.60;99.90;;;;;;5093326;28;20483;-88
2022/10/29 06:17:43;;;;;;;14.00;9.40;;;13.70;99.90;;;;;;5082300;28;20454;-88
2022/10/29 06:20:13;;;;;;;13.63;7.83;;;13.70;99.90;;;;;;5075116;28;20470;-88
2022/10/29 06:22:40;;;;;;;12.80;9.10;;;13.70;99.90;;;;;;5079265;28;20447;-88
2022/10/29 06:25:08;;;;;;;19.50;10.00;;;13.80;99.90;;;;;;5074013;28;20476;-89
2022/10/29 06:27:35;;;;;;;17.90;8.73;;;13.80;99.90;;;;;;5073911;28;20487;-88
2022/10/29 06:30:02;;;;;;;12.33;7.63;;;13.80;99.90;;;;;;5074272;28;20451;-88
2022/10/29 06:32:29;;;;;;;13.43;7.73;;;13.80;99.90;;;;;;5074573;28;20452;-88
2022/10/29 06:34:57;;;;;;;15.17;9.00;;;13.80;99.90;;;;;;5093890;28;20487;-88
2022/10/29 06:37:25;;;;;;;20.90;8.57;;;13.80;99.90;;;;;;5090398;28;20512;-88
2022/10/29 06:39:51;;;;;;;13.13;8.40;;;13.80;99.90;;;;;;5086691;28;20448;-89
2022/10/29 06:42:18;;;;;;;17.73;9.10;;;13.80;99.90;;;;;;5094062;28;20458;-89
2022/10/29 06:44:45;;;;;;;10.33;8.43;;;13.80;99.90;;;;;;5092689;28;20420;-88
2022/10/29 06:47:12;;;;;;;10.37;8.10;;;13.80;99.90;;;;;;5090984;28;20454;-89
2022/10/29 06:49:38;;;;;;;16.37;8.83;;;13.80;99.90;;;;;;5076776;28;20994;-89
2022/10/29 06:52:05;;;;;;;9.30;8.17;;;13.80;99.90;;;;;;5078340;28;20443;-87
2022/10/29 06:54:33;;;;;;;12.17;9.50;;;13.80;99.90;;;;;;5081310;28;20485;-87
2022/10/29 06:57:00;;;;;;;15.73;8.93;;;13.90;99.90;;;;;;5078457;28;20431;-87
2022/10/29 06:59:27;;;;;;;16.10;8.13;;;13.90;99.90;;;;;;5078320;28;20447;-87
2022/10/29 07:01:53;;;;;;;17.40;10.00;;;13.90;99.90;;;;;;5086806;28;20546;-88
2022/10/29 07:04:20;;;;;;;12.93;8.70;;;14.00;99.90;;;;;;5078091;28;20447;-87
2022/10/29 07:06:47;;;;;;;12.43;8.63;;;14.00;99.90;;;;;;5077345;28;20505;-83
2022/10/29 07:09:14;;;;;;;14.03;9.70;;;14.10;99.90;;;;;;5082191;28;20448;-84
2022/10/29 07:11:42;;;;;;;13.17;9.60;;;14.10;99.90;;;;;;5082442;28;20455;-84
2022/10/29 07:14:09;;;;;;;10.20;8.10;;;14.20;99.90;;;;;;5079268;28;20475;-84
2022/10/29 07:16:50;;;;;;;;;;;;;;;;;;;;;
2022/10/29 07:19:17;;;;;;;14.33;9.10;;;14.30;99.90;;;;;;5082064;28;20503;-85
2022/10/29 07:21:43;;;;;;;12.90;8.70;;;14.40;99.90;;;;;;5081344;28;20835;-84
2022/10/29 07:24:16;;;;;;;14.20;9.30;;;14.50;99.90;;;;;;5080060;28;20447;-85
2022/10/29 07:30:08;;;;;;;12.73;8.50;;;14.70;99.90;;;;;;5000905;28;20428;-85
2022/10/29 07:32:35;;;;;;;13.67;8.30;;;14.80;99.90;;;;;;5075056;28;20535;-86
2022/10/29 07:35:02;;;;;;;15.30;8.27;;;14.90;99.90;;;;;;5074011;28;20484;-85
2022/10/29 07:37:28;;;;;;;16.70;8.93;;;15.00;99.90;;;;;;5074292;28;20444;-85
2022/10/29 07:39:55;;;;;;;14.03;9.00;;;15.10;99.90;;;;;;5073780;28;20447;-87
2022/10/29 07:42:22;;;;;;;12.20;8.33;;;15.10;99.90;;;;;;5080844;28;20444;-85
2022/10/29 07:44:49;;;;;;;16.07;8.53;;;15.20;99.90;;;;;;5073971;28;20447;-84
2022/10/29 07:47:17;;;;;;;17.27;9.47;;;15.30;99.90;;;;;;5074152;28;20448;-86
2022/10/29 07:49:43;;;;;;;13.93;8.87;;;15.30;99.90;;;;;;5084681;28;20433;-85
2022/10/29 07:52:10;;;;;;;16.23;7.93;;;15.40;99.90;;;;;;5079604;28;20450;-87
2022/10/29 07:54:37;;;;;;;8.27;7.43;;;15.50;99.90;;;;;;5097313;28;20507;-85
2022/10/29 07:57:04;;;;;;;16.63;8.60;;;15.60;99.90;;;;;;5096314;28;20447;-84
2022/10/29 07:59:30;;;;;;;13.00;9.33;;;15.70;99.90;;;;;;5088391;28;20511;-86
2022/10/29 08:01:57;;;;;;;21.77;9.47;;;15.80;99.90;;;;;;5081759;28;20451;-85
2022/10/29 08:04:25;;;;;;;17.47;9.67;;;16.10;99.90;;;;;;5078121;28;20440;-84
2022/10/29 08:06:52;;;;;;;10.57;7.60;;;16.50;99.90;;;;;;5085533;28;20475;-86
2022/10/29 08:09:18;;;;;;;17.17;9.10;;;17.30;99.90;;;;;;5085506;28;20493;-83
2022/10/29 08:11:45;;;;;;;13.70;8.87;;;18.20;99.90;;;;;;5093276;28;20446;-84
2022/10/29 08:14:12;;;;;;;13.77;8.83;;;18.90;99.90;;;;;;5086671;28;20451;-84
2022/10/29 08:16:39;;;;;;;14.30;8.17;;;19.50;99.90;;;;;;5087309;28;20451;-86
2022/10/29 08:19:05;;;;;;;11.53;7.90;;;19.80;99.90;;;;;;5094512;28;20432;-84
2022/10/29 08:21:33;;;;;;;14.10;8.27;;;20.00;99.90;;;;;;5088833;28;20447;-85
2022/10/29 08:24:00;;;;;;;15.60;8.30;;;20.10;99.90;;;;;;5077051;28;20428;-85
2022/10/29 08:26:27;;;;;;;9.20;6.80;;;20.70;99.90;;;;;;5076492;28;20467;-87
2022/10/29 08:28:53;;;;;;;13.73;7.60;;;21.40;99.90;;;;;;5077901;28;20827;-87
2022/10/29 08:31:23;;;;;;;14.27;7.50;;;21.50;99.90;;;;;;5076312;28;20436;-88
2022/10/29 08:33:50;;;;;;;12.93;7.80;;;21.30;99.90;;;;;;5073913;28;20451;-86
2022/10/29 08:36:17;;;;;;;10.67;6.73;;;20.60;99.90;;;;;;5077084;28;20506;-87
2022/10/29 08:38:46;;;;;;;11.80;7.60;;;20.40;99.90;;;;;;5077843;28;20431;-87
2022/10/29 08:41:33;;;;;;;16.10;7.77;;;20.50;99.90;;;;;;5084814;28;20440;-86
2022/10/29 08:44:18;;;;;;;11.97;7.10;;;20.40;99.90;;;;;;5079538;28;20514;-87
2022/10/29 08:46:49;;;;;;;14.77;7.57;;;20.60;99.90;;;;;;5074664;28;20851;-84
2022/10/29 08:49:19;;;;;;;15.00;7.63;;;20.80;99.90;;;;;;5076570;28;20444;-87
2022/10/29 08:51:53;;;;;;;13.80;9.13;;;21.00;99.90;;;;;;5081642;28;20447;-87
2022/10/29 08:54:23;;;;;;;9.60;7.23;;;21.30;99.90;;;;;;5085802;28;20440;-86
2022/10/29 08:56:53;;;;;;;17.77;7.90;;;21.70;99.90;;;;;;5079603;28;20459;-86
2022/10/29 08:59:22;;;;;;;15.60;8.73;;;21.80;99.90;;;;;;5076235;28;20432;-87
2022/10/29 09:01:51;;;;;;;13.77;7.80;;;21.90;99.90;;;;;;5075799;28;20446;-87
2022/10/29 09:04:24;;;;;;;12.87;7.10;;;21.80;99.90;;;;;;5077672;28;20531;-86
2022/10/29 09:07:10;;;;;;;10.03;7.40;;;21.80;99.90;;;;;;5074200;28;20467;-88
2022/10/29 09:09:43;;;;;;;13.80;7.33;;;21.80;99.90;;;;;;5058104;28;20441;-87
2022/10/29 09:12:33;;;;;;;9.20;7.33;;;22.30;99.90;;;;;;5076849;28;20490;-87
2022/10/29 09:15:14;;;;;;;11.17;8.20;;;22.80;99.60;;;;;;5087890;28;20483;-87
2022/10/29 09:17:49;;;;;;;10.00;8.27;;;23.20;99.00;;;;;;5083499;28;20448;-86
2022/10/29 09:20:25;;;;;;;13.93;8.70;;;23.50;97.90;;;;;;5076936;28;20440;-86
2022/10/29 09:23:05;;;;;;;15.40;9.47;;;24.00;97.30;;;;;;5076683;28;20440;-86
2022/10/29 09:25:37;;;;;;;17.80;8.77;;;24.00;96.90;;;;;;5073504;28;20471;-85
2022/10/29 09:28:14;;;;;;;10.13;6.90;;;23.80;96.90;;;;;;5075900;28;20457;-86
2022/10/29 09:30:49;;;;;;;12.93;7.03;;;23.20;97.00;;;;;;5079084;28;20959;-86
2022/10/29 09:33:20;;;;;;;13.90;6.87;;;23.60;97.40;;;;;;5075692;28;20440;-85
2022/10/29 09:35:49;;;;;;;8.00;5.90;;;23.50;96.20;;;;;;5072489;28;20504;-87
2022/10/29 09:38:18;;;;;;;15.00;7.03;;;23.60;96.80;;;;;;5072449;28;20438;-85
2022/10/29 09:40:51;;;;;;;14.67;6.63;;;24.10;96.60;;;;;;5075352;28;20438;-85
2022/10/29 09:43:32;;;;;;;15.97;7.17;;;24.80;94.70;;;;;;5074098;28;20443;-85
2022/10/29 09:46:08;;;;;;;15.63;8.57;;;25.10;93.90;;;;;;5073450;28;20489;-85
2022/10/29 09:48:40;;;;;;;17.90;7.97;;;25.10;93.10;;;;;;5073544;28;20438;-85
2022/10/29 09:51:19;;;;;;;17.20;8.40;;;24.60;93.50;;;;;;5070436;28;20443;-86
2022/10/29 09:53:46;;;;;;;13.90;6.83;;;25.00;93.30;;;;;;5069495;28;20443;-86
2022/10/29 09:56:14;;;;;;;11.50;6.33;;;25.70;91.80;;;;;;5083092;28;20493;-84
2022/10/29 09:58:44;;;;;;;12.23;6.47;;;25.70;91.40;;;;;;5093532;28;20435;-86
2022/10/29 10:01:12;;;;;;;11.80;7.33;;;25.90;92.00;;;;;;5079677;28;20435;-90
2022/10/29 10:03:44;;;;;;;9.67;7.33;;;26.00;91.30;;;;;;5071382;28;20448;-84
2022/10/29 10:06:12;;;;;;;13.57;6.70;;;26.60;90.10;;;;;;5071917;28;20996;-86
2022/10/29 10:09:01;;;;;;;11.03;7.00;;;27.70;89.00;;;;;;5073333;28;20444;-89
2022/10/29 10:11:36;;;;;;;9.50;5.20;;;28.10;82.00;;;;;;5072920;28;20953;-86
2022/10/29 10:14:13;;;;;;;11.70;7.53;;;29.00;81.30;;;;;;5071079;28;20440;-85
2022/10/29 10:16:40;;;;;;;10.97;5.37;;;30.40;77.20;;;;;;5078012;28;20488;-84
2022/10/29 10:19:22;;;;;;;9.27;5.03;;;31.30;71.20;;;;;;5079773;28;20445;-87
2022/10/29 10:21:57;;;;;;;10.90;5.97;;;32.00;67.90;;;;;;5089051;28;20469;-86
2022/10/29 10:24:30;;;;;;;16.07;6.53;;;33.20;64.90;;;;;;5083541;28;20439;-85
2022/10/29 10:26:58;;;;;;;9.00;5.30;;;34.50;60.50;;;;;;5072816;28;20467;-85
2022/10/29 10:29:26;;;;;;;14.97;5.77;;;35.20;57.40;;;;;;5069911;28;20440;-86
2022/10/29 10:32:14;;;;;;;12.43;5.87;;;35.30;54.50;;;;;;5080353;28;20447;-85
2022/10/29 10:34:41;;;;;;;9.93;5.50;;;35.50;53.30;;;;;;5074223;28;20419;-86
2022/10/29 10:37:16;;;;;;;10.13;5.67;;;35.60;51.80;;;;;;5077649;28;20434;-86
2022/10/29 10:39:45;;;;;;;10.40;5.30;;;35.60;52.50;;;;;;5082430;28;20474;-85
2022/10/29 10:42:19;;;;;;;17.83;5.70;;;34.70;51.60;;;;;;5096472;28;20417;-85
2022/10/29 10:44:51;;;;;;;9.77;5.90;;;35.40;51.90;;;;;;5094780;28;20470;-89
2022/10/29 10:47:20;;;;;;;11.90;6.97;;;34.80;52.60;;;;;;5081548;28;20441;-85
2022/10/29 10:49:46;;;;;;;10.30;5.77;;;34.10;53.20;;;;;;5081534;28;20459;-88
2022/10/29 10:52:17;;;;;;;9.37;5.70;;;34.50;53.30;;;;;;5086289;28;20449;-85
2022/10/29 10:54:46;;;;;;;8.80;5.43;;;34.70;52.10;;;;;;5087016;28;20450;-84
2022/10/29 10:57:24;;;;;;;8.13;5.73;;;35.10;51.30;;;;;;5086155;28;20448;-90
2022/10/29 10:59:58;;;;;;;10.27;5.43;;;35.00;51.90;;;;;;5079166;28;20464;-86
2022/10/29 11:02:33;;;;;;;8.50;5.03;;;34.50;52.40;;;;;;5088960;28;20474;-86
2022/10/29 11:05:05;;;;;;;8.00;4.87;;;35.40;51.90;;;;;;5097794;28;20438;-86
2022/10/29 11:07:35;;;;;;;6.90;5.57;;;35.70;50.40;;;;;;5095313;28;20439;-86
2022/10/29 11:10:05;;;;;;;14.33;5.50;;;35.30;51.20;;;;;;5075345;28;20437;-86
2022/10/29 11:12:39;;;;;;;8.73;5.17;;;35.20;50.70;;;;;;5077912;28;20436;-86
2022/10/29 11:15:13;;;;;;;11.87;5.37;;;34.70;50.60;;;;;;5081554;28;20456;-86
2022/10/29 11:17:49;;;;;;;9.50;5.60;;;35.70;50.00;;;;;;5076080;28;20440;-86
2022/10/29 11:20:21;;;;;;;14.63;7.37;;;36.10;50.10;;;;;;5072779;28;20443;-86
2022/10/29 11:22:57;;;;;;;11.17;5.10;;;36.90;47.60;;;;;;5073869;28;20466;-86
2022/10/29 11:25:28;;;;;;;9.27;5.00;;;36.50;46.80;;;;;;5092263;28;20461;-86
2022/10/29 11:28:03;;;;;;;11.97;5.50;;;35.80;47.90;;;;;;5087835;28;20447;-85
2022/10/29 11:30:33;;;;;;;13.80;6.07;;;36.10;47.40;;;;;;5075295;28;20450;-86
2022/10/29 11:33:12;;;;;;;8.60;5.40;;;36.50;47.10;;;;;;5074413;28;20443;-86
2022/10/29 11:35:44;;;;;;;9.80;4.80;;;36.70;46.60;;;;;;5072429;28;20489;-87
2022/10/29 11:38:16;;;;;;;9.50;5.37;;;36.90;46.80;;;;;;5073100;28;20450;-86
2022/10/29 11:40:47;;;;;;;10.27;5.93;;;37.70;46.30;;;;;;5086249;28;20424;-85
2022/10/29 11:43:19;;;;;;;9.80;6.53;;;37.30;45.90;;;;;;5095332;28;20413;-87
2022/10/29 11:45:57;;;;;;;8.57;5.30;;;36.80;46.70;;;;;;5082914;28;21029;-87
2022/10/29 11:48:37;;;;;;;9.70;6.20;;;36.40;48.20;;;;;;5072808;28;20439;-88
2022/10/29 11:51:12;;;;;;;11.67;6.00;;;36.20;47.40;;;;;;5071506;28;20434;-87
2022/10/29 11:53:56;;;;;;;13.70;7.10;;;34.70;49.30;;;;;;5070592;28;20442;-87
2022/10/29 11:56:38;;;;;;;8.73;5.17;;;35.50;49.50;;;;;;5076055;28;20491;-87
2022/10/29 11:59:13;;;;;;;9.03;5.40;;;35.70;48.70;;;;;;5082399;28;20445;-86
2022/10/29 12:01:51;;;;;;;14.27;5.87;;;36.70;48.30;;;;;;5087450;28;20442;-87
2022/10/29 12:04:26;;;;;;;8.60;5.93;;;37.20;47.00;;;;;;5073771;28;20441;-87
2022/10/29 12:07:04;;;;;;;10.63;5.33;;;36.10;48.20;;;;;;5073392;28;20470;-87
2022/10/29 12:09:46;;;;;;;10.50;5.20;;;36.00;49.00;;;;;;5074543;28;20447;-86
2022/10/29 12:12:19;;;;;;;12.90;5.63;;;36.10;49.10;;;;;;5086118;28;20437;-85
2022/10/29 12:14:52;;;;;;;10.23;4.97;;;35.90;47.60;;;;;;5095612;28;20444;-85
2022/10/29 12:17:24;;;;;;;10.10;5.50;;;34.90;49.20;;;;;;5083364;28;20485;-85
2022/10/29 12:20:00;;;;;;;9.43;5.50;;;34.20;51.00;;;;;;5076801;28;20441;-85
2022/10/29 12:22:37;;;;;;;10.33;4.90;;;33.40;51.80;;;;;;5073840;28;20448;-85
2022/10/29 12:25:31;;;;;;;11.80;5.80;;;32.30;53.30;;;;;;5074630;28;20462;-85
2022/10/29 12:28:17;;;;;;;13.17;5.40;;;31.20;55.30;;;;;;5074363;28;20440;-85
2022/10/29 12:31:00;;;;;;;16.77;6.97;;;30.70;57.60;;;;;;5075188;28;20504;-85
2022/10/29 12:33:33;;;;;;;8.30;5.47;;;30.80;57.60;;;;;;5076082;28;20451;-86
2022/10/29 12:36:07;;;;;;;11.30;5.60;;;30.80;57.20;;;;;;5075768;28;20846;-84
2022/10/29 12:38:38;;;;;;;15.00;5.90;;;30.70;57.80;;;;;;5078431;28;20439;-84
2022/10/29 12:41:13;;;;;;;9.63;5.97;;;30.30;58.50;;;;;;5082849;28;20814;-84
2022/10/29 12:43:41;;;;;;;16.43;6.93;;;29.80;60.00;;;;;;5077776;28;20443;-84
2022/10/29 12:46:20;;;;;;;8.73;6.37;;;29.30;61.50;;;;;;5077117;28;20980;-85
2022/10/29 12:48:56;;;;;;;13.87;5.43;;;28.80;62.50;;;;;;5075587;28;20436;-84
2022/10/29 12:51:31;;;;;;;13.33;6.20;;;28.60;63.40;;;;;;5076584;28;20433;-84
2022/10/29 12:54:22;;;;;;;13.70;6.90;;;28.50;64.50;;;;;;5078223;28;21011;-90
2022/10/29 12:56:50;;;;;;;14.93;7.80;;;28.60;66.70;;;;;;5078725;28;20487;-84